»·PEaware :: N1955 KSMX-KBFL

N1955 :: KSMX-KBFL

FLIGHT INFORMATION

Flight Status: Arrived
Operator: Privately registered:
United States
More flights under this callsign
Pilot: Ross W. (20449)
Aircraft: BEECH AIRCRAFT BARON
(BE58)
More flights by this aircraft type
Origin: KSMX Santa Maria Pub/Capt Hancock
United States
Destination: KBFL Meadows
United States
More flights between these airports :: More routes between these airports
Route: FLW
File this flight plan on PilotEdge
Remarks: CAT-5
Altitude:
(Current/Filed)
7,500ft
Speed:
(Current/Filed)
165kts
Departed: 26-Sep-18 08:30 AM
Arrived: 26-Sep-18 09:04 AM
Distance/Time
Traveled:
76nm/0:34
Distance/Time
To Go:
Arrived

Flight Plot

Page will automatically refresh every two minutes.


Map Options




Map Legend


Flown Route
Filed Route
Departure Airport
Arrival Airport
Navaid (VOR, NDB)
Fix

Horizontal Profiles

Position Reports

Time Latitude Longitude Heading Altitude Ground
Speed
26-Sep-18 08:17 34.899392 -120.450141 87 264ft 0kts
26-Sep-18 08:18 34.899392 -120.450141 87 264ft 0kts
26-Sep-18 08:19 34.899392 -120.450141 87 264ft 0kts
26-Sep-18 08:20 34.899392 -120.450141 87 264ft 0kts
26-Sep-18 08:21 34.899392 -120.450141 87 264ft 0kts
26-Sep-18 08:22 34.899392 -120.450141 87 264ft 0kts
26-Sep-18 08:23 34.899392 -120.450141 87 264ft 0kts
26-Sep-18 08:24 34.899392 -120.450141 87 264ft 0kts
26-Sep-18 08:25 34.899392 -120.450141 87 264ft 0kts
26-Sep-18 08:26 34.899392 -120.450141 87 264ft 0kts
26-Sep-18 08:27 34.898398 -120.449956 163 264ft 12kts
26-Sep-18 08:28 34.895856 -120.446961 135 264ft 10kts
26-Sep-18 08:29 34.893958 -120.444936 179 264ft 9kts
26-Sep-18 08:30 34.893305 -120.444956 182 264ft 0kts
26-Sep-18 08:31 34.893233 -120.444960 182 264ft 5kts
26-Sep-18 08:32 34.906087 -120.462074 314 744ft 113kts
26-Sep-18 08:33 34.925575 -120.443751 70 2168ft 108kts
26-Sep-18 08:34 34.938391 -120.412138 71 3799ft 107kts
26-Sep-18 08:35 34.948364 -120.377663 74 5393ft 110kts
26-Sep-18 08:36 34.958322 -120.342800 74 6894ft 109kts
26-Sep-18 08:37 34.969285 -120.303789 74 7527ft 145kts
26-Sep-18 08:38 34.983451 -120.253560 73 7517ft 163kts
26-Sep-18 08:39 34.998441 -120.200736 73 7515ft 165kts
26-Sep-18 08:40 35.010968 -120.156520 73 7515ft 166kts
26-Sep-18 08:41 35.025473 -120.105271 73 7515ft 166kts
26-Sep-18 08:42 35.040485 -120.052145 73 7515ft 166kts
26-Sep-18 08:43 35.055511 -119.998875 73 7514ft 166kts
26-Sep-18 08:44 35.070507 -119.945637 73 7514ft 166kts
26-Sep-18 08:45 35.085478 -119.892370 73 7514ft 166kts
26-Sep-18 08:46 35.108350 -119.843689 67 7509ft 167kts
26-Sep-18 08:47 35.124840 -119.791005 64 7505ft 168kts
26-Sep-18 08:48 35.146892 -119.740953 65 7503ft 167kts
26-Sep-18 08:49 35.168786 -119.690548 65 7503ft 167kts
26-Sep-18 08:50 35.190472 -119.640164 65 7503ft 167kts
26-Sep-18 08:51 35.212032 -119.590018 65 7503ft 167kts
26-Sep-18 08:52 35.233782 -119.539473 65 6961ft 167kts
26-Sep-18 08:53 35.255129 -119.489476 65 5953ft 166kts
26-Sep-18 08:54 35.276518 -119.439762 64 4942ft 164kts
26-Sep-18 08:55 35.297433 -119.391443 65 3928ft 159kts
26-Sep-18 08:56 35.316790 -119.346327 66 3298ft 145kts
26-Sep-18 08:57 35.334755 -119.303419 66 2693ft 138kts
26-Sep-18 08:58 35.351695 -119.263336 66 2511ft 125kts
26-Sep-18 08:59 35.367283 -119.226653 66 2513ft 118kts
26-Sep-18 09:00 35.372816 -119.188661 92 2514ft 113kts
26-Sep-18 09:01 35.372460 -119.149861 92 2102ft 114kts
26-Sep-18 09:02 35.378551 -119.111734 73 1605ft 116kts
26-Sep-18 09:03 35.389399 -119.075620 73 1512ft 108kts
26-Sep-18 09:04 35.411713 -119.051328 37 1266ft 105kts
26-Sep-18 09:05 35.435865 -119.058624 319 488ft 83kts
26-Sep-18 09:06 35.440314 -119.062619 31 497ft 0kts
26-Sep-18 09:07 35.439799 -119.061174 135 498ft 15kts
26-Sep-18 09:08 35.436404 -119.057064 134 493ft 17kts
26-Sep-18 09:09 35.435188 -119.053763 46 498ft 12kts
26-Sep-18 09:10 35.435421 -119.053768 142 498ft 0kts
26-Sep-18 09:11 35.435421 -119.053768 142 498ft 0kts
26-Sep-18 09:12 35.435421 -119.053768 142 498ft 0kts

Navigation Log

Ident Type
1. KSMX Airport
2. FLW Navaid
3. KBFL Airport